Time;durP1;ratioP1;P1;durP2;ratioP2;P2;SDS_P1;SDS_P2;PMS_P1;PMS_P2;Temp;Humidity;BMP_temperature;BMP_pressure;BME280_temperature;BME280_humidity;BME280_pressure;Samples;Min_cycle;Max_cycle;Signal;HPM_P1;HPM_P2
2022/06/01 00:00:33;;;;;;;8.43;5.68;;;;;;;;;;5077585;28;20123;-72
2022/06/01 00:02:59;;;;;;;8.05;5.35;;;;;;;;;;5055459;28;20036;-72
2022/06/01 00:05:25;;;;;;;8.82;5.32;;;;;;;;;;5076382;28;20426;-72
2022/06/01 00:07:51;;;;;;;9.68;6.68;;;;;;;;;;5070789;28;20051;-72
2022/06/01 00:10:18;;;;;;;9.60;6.03;;;;;;;;;;5071549;28;20498;-72
2022/06/01 00:12:44;;;;;;;7.15;5.82;;;;;;;;;;5079047;28;20025;-72
2022/06/01 00:15:11;;;;;;;13.52;6.93;;;;;;;;;;5070292;28;20106;-73
2022/06/01 00:17:37;;;;;;;8.25;6.88;;;;;;;;;;5073423;28;20121;-72
2022/06/01 00:20:03;;;;;;;6.70;5.90;;;;;;;;;;5074962;28;20426;-73
2022/06/01 00:22:29;;;;;;;7.22;6.07;;;;;;;;;;5059846;28;20044;-73
2022/06/01 00:24:56;;;;;;;8.95;6.43;;;;;;;;;;5075628;28;20491;-73
2022/06/01 00:27:22;;;;;;;9.60;6.50;;;;;;;;;;5067223;28;21726;-72
2022/06/01 00:29:49;;;;;;;8.82;6.88;;;;;;;;;;5081462;28;20119;-73
2022/06/01 00:32:15;;;;;;;8.25;6.03;;;;;;;;;;5076215;28;20039;-72
2022/06/01 00:34:42;;;;;;;7.32;5.30;;;;;;;;;;5076746;28;20081;-73
2022/06/01 00:37:08;;;;;;;10.20;6.00;;;;;;;;;;5071035;28;20383;-72
2022/06/01 00:39:35;;;;;;;7.43;6.45;;;;;;;;;;5073915;28;20048;-72
2022/06/01 00:42:19;;;;;;;6.70;5.97;;;;;;;;;;5077821;28;20101;-73
2022/06/01 00:44:45;;;;;;;8.52;7.28;;;;;;;;;;5067987;28;20042;-73
2022/06/01 00:47:12;;;;;;;7.65;6.60;;;;;;;;;;5075238;28;20036;-72
2022/06/01 00:49:39;;;;;;;8.55;5.97;;;;;;;;;;5079532;28;20043;-72
2022/06/01 00:52:06;;;;;;;8.13;6.03;;;;;;;;;;5075062;28;20028;-72
2022/06/01 00:54:32;;;;;;;7.30;5.95;;;;;;;;;;5044347;28;20475;-72
2022/06/01 00:57:01;;;;;;;6.60;5.90;;;;;;;;;;5068355;28;20032;-72
2022/06/01 00:59:29;;;;;;;8.48;5.80;;;;;;;;;;5081884;28;20043;-72
2022/06/01 01:01:56;;;;;;;13.05;6.78;;;;;;;;;;5079639;28;20028;-72
2022/06/01 01:04:23;;;;;;;10.63;6.30;;;;;;;;;;5059479;28;20036;-72
2022/06/01 01:06:49;;;;;;;8.80;6.28;;;;;;;;;;5063704;28;20040;-72
2022/06/01 01:09:15;;;;;;;8.88;6.28;;;;;;;;;;5080677;28;20064;-72
2022/06/01 01:11:51;;;;;;;8.57;6.13;;;;;;;;;;5078337;28;20032;-72
2022/06/01 01:14:20;;;;;;;8.25;6.93;;;;;;;;;;5077512;28;20021;-72
2022/06/01 01:16:47;;;;;;;10.45;6.80;;;;;;;;;;5077165;28;20514;-72
2022/06/01 01:19:23;;;;;;;8.13;6.78;;;;;;;;;;5081048;28;20103;-73
2022/06/01 01:21:58;;;;;;;9.20;6.40;;;;;;;;;;5079870;28;20028;-73
2022/06/01 01:24:30;;;;;;;10.57;6.32;;;;;;;;;;5080675;28;20705;-72
2022/06/01 01:26:56;;;;;;;13.05;6.65;;;;;;;;;;5084467;28;20036;-72
2022/06/01 01:29:32;;;;;;;8.70;6.60;;;12.30;99.90;;;;;;5062811;28;20020;-72
2022/06/01 01:31:58;;;;;;;10.73;7.75;;;;;;;;;;5077653;28;20026;-72
2022/06/01 01:34:24;;;;;;;13.05;8.35;;;;;;;;;;5070367;28;20036;-72
2022/06/01 01:36:51;;;;;;;8.43;7.57;;;;;;;;;;5079425;28;20055;-73
2022/06/01 01:39:18;;;;;;;9.85;7.20;;;;;;;;;;5068056;28;20358;-73
2022/06/01 01:41:49;;;;;;;11.15;7.13;;;12.00;99.90;;;;;;5078867;28;20086;-72
2022/06/01 01:44:23;;;;;;;7.40;6.50;;;;;;;;;;5079256;28;20535;-72
2022/06/01 01:46:50;;;;;;;7.38;6.68;;;;;;;;;;5076624;28;20833;-72
2022/06/01 01:49:24;;;;;;;10.68;8.00;;;;;;;;;;5057786;28;20028;-72
2022/06/01 01:51:55;;;;;;;11.45;9.63;;;;;;;;;;5079314;28;20027;-72
2022/06/01 01:54:52;;;;;;;11.23;8.57;;;12.00;99.90;;;;;;5078212;28;20023;-72
2022/06/01 01:57:29;;;;;;;10.20;9.10;;;11.70;99.90;;;;;;5056072;28;20146;-72
2022/06/01 02:00:03;;;;;;;13.00;9.52;;;;;;;;;;5084240;28;20360;-72
2022/06/01 02:02:45;;;;;;;10.65;9.52;;;;;;;;;;5077458;28;20047;-72
2022/06/01 02:08:35;;;;;;;10.07;9.05;;;;;;;;;;5073847;28;20094;-73
2022/06/01 02:14:06;;;;;;;10.88;9.57;;;;;;;;;;5075644;28;20054;-72
2022/06/01 02:16:35;;;;;;;9.98;8.93;;;;;;;;;;5076072;28;20028;-72
2022/06/01 02:19:02;;;;;;;10.63;8.75;;;;;;;;;;5075464;28;20035;-73
2022/06/01 02:21:28;;;;;;;12.80;9.82;;;;;;;;;;5080713;28;20154;-72
2022/06/01 02:23:56;;;;;;;11.10;9.13;;;;;;;;;;5072702;28;20036;-72
2022/06/01 02:26:22;;;;;;;12.68;8.90;;;;;;;;;;5077272;28;20481;-72
2022/06/01 02:28:49;;;;;;;10.27;9.27;;;;;;;;;;5077996;28;20025;-72
2022/06/01 02:31:16;;;;;;;13.45;9.10;;;;;;;;;;5057526;28;20040;-72
2022/06/01 02:33:44;;;;;;;12.60;9.30;;;;;;;;;;5076892;28;20039;-72
2022/06/01 02:36:11;;;;;;;11.40;8.85;;;;;;;;;;5079906;28;20028;-72
2022/06/01 02:38:40;;;;;;;11.05;8.27;;;;;;;;;;5067870;28;20031;-72
2022/06/01 02:41:06;;;;;;;10.73;9.07;;;;;;;;;;5078601;28;20028;-72
2022/06/01 02:43:33;;;;;;;9.73;8.52;;;;;;;;;;5077116;28;20383;-72
2022/06/01 02:45:59;;;;;;;13.77;8.68;;;;;;;;;;5081763;28;20040;-72
2022/06/01 02:48:25;;;;;;;11.52;9.43;;;;;;;;;;5076040;28;20400;-72
2022/06/01 02:50:51;;;;;;;10.63;9.18;;;;;;;;;;5076850;28;20030;-72
2022/06/01 02:53:18;;;;;;;10.70;8.70;;;;;;;;;;5077411;28;20078;-73
2022/06/01 02:55:44;;;;;;;9.98;8.57;;;;;;;;;;5077843;28;20119;-72
2022/06/01 02:58:11;;;;;;;10.18;8.77;;;;;;;;;;5060596;28;20139;-72
2022/06/01 03:00:40;;;;;;;12.00;9.57;;;;;;;;;;5049842;28;20568;-72
2022/06/01 03:03:07;;;;;;;12.80;9.07;;;;;;;;;;5077373;28;20054;-72
2022/06/01 03:05:35;;;;;;;14.98;9.93;;;;;;;;;;5063742;28;20024;-72
2022/06/01 03:08:01;;;;;;;9.80;8.77;;;;;;;;;;5068602;28;20060;-72
2022/06/01 03:10:28;;;;;;;12.15;9.60;;;;;;;;;;5072660;28;20036;-73
2022/06/01 03:12:54;;;;;;;9.60;8.63;;;;;;;;;;5080914;28;20482;-72
2022/06/01 03:15:21;;;;;;;17.27;10.90;;;;;;;;;;5075915;28;20039;-72
2022/06/01 03:17:47;;;;;;;10.82;9.13;;;;;;;;;;5076832;28;20024;-72
2022/06/01 03:20:15;;;;;;;11.57;9.50;;;;;;;;;;5059700;28;20058;-72
2022/06/01 03:22:41;;;;;;;15.50;9.75;;;;;;;;;;5078138;28;20042;-72
2022/06/01 03:25:13;;;;;;;10.98;9.10;;;;;;;;;;5073371;28;20079;-72
2022/06/01 03:27:39;;;;;;;12.43;10.10;;;;;;;;;;5076507;28;20036;-72
2022/06/01 03:30:06;;;;;;;12.88;10.45;;;;;;;;;;5073955;28;20432;-72
2022/06/01 03:32:32;;;;;;;16.05;9.77;;;;;;;;;;5071028;28;20333;-72
2022/06/01 03:34:58;;;;;;;10.45;9.35;;;;;;;;;;5075213;28;20035;-72
2022/06/01 03:37:24;;;;;;;10.68;9.02;;;;;;;;;;5058560;28;20028;-72
2022/06/01 03:39:50;;;;;;;10.93;9.10;;;;;;;;;;5074253;28;20522;-72
2022/06/01 03:42:16;;;;;;;11.57;10.27;;;;;;;;;;5075125;28;20039;-72
2022/06/01 03:47:27;;;;;;;12.77;10.98;;;;;;;;;;5075713;28;20047;-72
2022/06/01 03:49:54;;;;;;;11.73;10.50;;;;;;;;;;5072505;28;20046;-72
2022/06/01 03:52:20;;;;;;;11.65;10.13;;;;;;;;;;5067903;28;20068;-72
2022/06/01 03:54:46;;;;;;;12.18;10.88;;;;;;;;;;5069983;28;20024;-72
2022/06/01 03:57:12;;;;;;;12.50;10.07;;;;;;;;;;5072111;28;20112;-72
2022/06/01 03:59:39;;;;;;;11.35;10.25;;;;;;;;;;5072925;28;20160;-72
2022/06/01 04:02:06;;;;;;;13.25;10.45;;;;;;;;;;5073272;28;20098;-72
2022/06/01 04:04:33;;;;;;;11.45;10.23;;;;;;;;;;5074056;28;20039;-72
2022/06/01 04:06:59;;;;;;;12.15;10.90;;;;;;;;;;5077389;28;20028;-72
2022/06/01 04:09:29;;;;;;;11.18;10.02;;;;;;;;;;5068295;28;20089;-73
2022/06/01 04:11:55;;;;;;;13.15;11.30;;;;;;;;;;5075926;28;20111;-72
2022/06/01 04:14:21;;;;;;;12.40;11.10;;;;;;;;;;5074061;28;20090;-72
2022/06/01 04:16:48;;;;;;;13.23;11.82;;;;;;;;;;5072290;28;20115;-72
2022/06/01 04:19:14;;;;;;;13.88;12.35;;;;;;;;;;5053482;28;20063;-72
2022/06/01 04:21:41;;;;;;;14.38;12.85;;;;;;;;;;5068942;28;20112;-72
2022/06/01 04:24:10;;;;;;;16.83;11.77;;;;;;;;;;5075545;28;20028;-72
2022/06/01 04:26:36;;;;;;;14.82;13.27;;;;;;;;;;5073872;28;20039;-72
2022/06/01 04:29:02;;;;;;;13.68;12.27;;;;;;;;;;5072756;28;20032;-72
2022/06/01 04:31:28;;;;;;;19.58;12.43;;;;;;;;;;5075233;28;20017;-72
2022/06/01 04:33:54;;;;;;;15.77;12.35;;;;;;;;;;5051164;28;20063;-72
2022/06/01 04:36:20;;;;;;;15.35;12.55;;;;;;;;;;5077027;28;20395;-72
2022/06/01 04:38:47;;;;;;;13.68;12.27;;;;;;;;;;5071709;28;20040;-72
2022/06/01 04:41:13;;;;;;;12.98;11.75;;;;;;;;;;5068152;28;20044;-72
2022/06/01 04:43:39;;;;;;;12.95;11.65;;;;;;;;;;5052394;28;20032;-71
2022/06/01 04:46:05;;;;;;;14.05;12.10;;;;;;;;;;5052207;28;20491;-72
2022/06/01 04:48:31;;;;;;;14.35;12.88;;;;;;;;;;5081070;28;20042;-72
2022/06/01 04:50:58;;;;;;;16.90;13.52;;;;;;;;;;5073486;28;20115;-73
2022/06/01 04:53:25;;;;;;;14.57;13.15;;;;;;;;;;5072282;28;20035;-72
2022/06/01 04:55:51;;;;;;;17.65;13.30;;;;;;;;;;5070875;28;20487;-72
2022/06/01 04:58:18;;;;;;;15.10;13.48;;;;;;;;;;5077608;28;20032;-72
2022/06/01 05:00:45;;;;;;;15.82;12.98;;;;;;;;;;5071327;28;20066;-72
2022/06/01 05:03:12;;;;;;;14.70;13.20;;;;;;;;;;5077045;28;20216;-72
2022/06/01 05:05:39;;;;;;;16.30;14.38;;;;;;;;;;5071593;28;20120;-72
2022/06/01 05:08:06;;;;;;;15.07;13.32;;;;;;;;;;5052806;28;22046;-72
2022/06/01 05:10:32;;;;;;;15.77;13.80;;;;;;;;;;5077412;28;20047;-72
2022/06/01 05:12:58;;;;;;;15.63;14.13;;;;;;;;;;5070708;28;20043;-72
2022/06/01 05:15:24;;;;;;;16.52;14.18;;;;;;;;;;5067408;28;20037;-72
2022/06/01 05:17:50;;;;;;;13.43;12.02;;;;;;;;;;5077689;28;20448;-72
2022/06/01 05:20:16;;;;;;;15.65;13.02;;;;;;;;;;5060288;28;20059;-72
2022/06/01 05:22:42;;;;;;;15.50;13.02;;;;;;;;;;5062979;28;20103;-72
2022/06/01 05:25:09;;;;;;;13.90;12.50;;;;;;;;;;5071521;28;20471;-73
2022/06/01 05:27:35;;;;;;;16.10;12.88;;;;;;;;;;5066106;28;20055;-73
2022/06/01 05:30:01;;;;;;;14.35;10.93;;;;;;;;;;5053507;28;20982;-74
2022/06/01 05:32:28;;;;;;;14.50;12.10;;;;;;;;;;5054456;28;20040;-73
2022/06/01 05:34:54;;;;;;;10.80;9.32;;;;;;;;;;5066563;28;20052;-76
2022/06/01 05:37:20;;;;;;;24.27;15.73;;;;;;;;;;5069419;28;20039;-81
2022/06/01 05:39:46;;;;;;;20.92;15.95;;;;;;;;;;5077867;28;20024;-76
2022/06/01 05:42:12;;;;;;;15.23;11.45;;;;;;;;;;5063401;28;20036;-75
2022/06/01 05:44:38;;;;;;;11.82;10.15;;;;;;;;;;5060314;28;20047;-74
2022/06/01 05:47:05;;;;;;;10.98;9.75;;;;;;;;;;5073026;28;20066;-73
2022/06/01 05:49:31;;;;;;;10.35;9.35;;;;;;;;;;5080001;28;20504;-73
2022/06/01 05:51:57;;;;;;;10.63;9.57;;;;;;;;;;5078402;28;20045;-75
2022/06/01 05:54:23;;;;;;;11.10;9.82;;;;;;;;;;5081517;28;20044;-74
2022/06/01 05:56:49;;;;;;;12.32;10.10;;;;;;;;;;5075622;28;20548;-73
2022/06/01 05:59:15;;;;;;;11.43;9.10;;;;;;;;;;5080609;28;20048;-73
2022/06/01 06:01:41;;;;;;;13.23;9.73;;;;;;;;;;5078158;28;20031;-73
2022/06/01 06:04:08;;;;;;;10.63;9.52;;;;;;;;;;5078882;28;20502;-74
2022/06/01 06:06:34;;;;;;;11.20;9.82;;;;;;;;;;5074706;28;20079;-74
2022/06/01 06:09:02;;;;;;;11.82;8.45;;;;;;;;;;5082385;28;20052;-74
2022/06/01 06:11:35;;;;;;;10.90;9.75;;;;;;;;;;5081205;28;20031;-74
2022/06/01 06:14:01;;;;;;;12.07;9.60;;;;;;;;;;5077357;28;20589;-74
2022/06/01 06:16:29;;;;;;;15.23;8.82;;;;;;;;;;5072153;28;20044;-75
2022/06/01 06:18:56;;;;;;;15.07;10.32;;;;;;;;;;5074680;28;20076;-75
2022/06/01 06:21:22;;;;;;;11.43;9.55;;;;;;;;;;5075193;28;20030;-75
2022/06/01 06:23:48;;;;;;;11.82;9.80;;;;;;;;;;5077500;28;20156;-75
2022/06/01 06:26:14;;;;;;;10.27;7.75;;;;;;;;;;5054422;28;20118;-75
2022/06/01 06:28:40;;;;;;;10.55;9.05;;;;;;;;;;5071215;28;20041;-75
2022/06/01 06:31:07;;;;;;;10.88;9.23;;;;;;;;;;5063087;28;20028;-74
2022/06/01 06:33:33;;;;;;;11.02;8.15;;;;;;;;;;5064100;28;20422;-74
2022/06/01 06:36:03;;;;;;;10.27;8.20;;;;;;;;;;5070259;28;20045;-74
2022/06/01 06:38:30;;;;;;;9.43;8.45;;;;;;;;;;5078288;28;20107;-74
2022/06/01 06:40:57;;;;;;;10.13;8.80;;;;;;;;;;5067950;28;20032;-74
2022/06/01 06:43:24;;;;;;;10.57;9.07;;;;;;;;;;5070830;28;20073;-73
2022/06/01 06:46:01;;;;;;;11.82;8.93;;;;;;;;;;5070402;28;20033;-73
2022/06/01 06:48:28;;;;;;;14.43;9.65;;;;;;;;;;5051820;28;20075;-73
2022/06/01 06:50:54;;;;;;;8.80;7.63;;;;;;;;;;5067526;28;20046;-74
2022/06/01 06:53:20;;;;;;;11.18;8.40;;;;;;;;;;5058526;28;20117;-74
2022/06/01 06:55:46;;;;;;;13.38;9.27;;;;;;;;;;5075806;28;20452;-74
2022/06/01 06:58:12;;;;;;;10.95;8.95;;;;;;;;;;5078931;28;20036;-74
2022/06/01 07:00:38;;;;;;;11.77;9.32;;;;;;;;;;5063918;28;20036;-73
2022/06/01 07:03:05;;;;;;;9.32;8.10;;;;;;;;;;5049568;28;20119;-74
2022/06/01 07:08:17;;;;;;;10.85;8.55;;;;;;;;;;5077726;28;20105;-74
2022/06/01 07:10:43;;;;;;;10.18;8.30;;;;;;;;;;5069188;28;20028;-75
2022/06/01 07:13:09;;;;;;;9.75;7.53;;;;;;;;;;5046073;28;20094;-74
2022/06/01 07:15:35;;;;;;;9.45;8.10;;;;;;;;;;5070016;28;20074;-75
2022/06/01 07:18:02;;;;;;;11.30;7.80;;;;;;;;;;5071528;28;20047;-74
2022/06/01 07:20:28;;;;;;;85.75;62.70;;;;;;;;;;5077254;28;20081;-74
2022/06/01 07:22:56;;;;;;;12.93;9.40;;;;;;;;;;5058169;28;20043;-76
2022/06/01 07:25:22;;;;;;;36.47;27.75;;;;;;;;;;5066696;28;20045;-76
2022/06/01 07:27:49;;;;;;;15.52;8.40;;;;;;;;;;5067889;28;20497;-75
2022/06/01 07:30:15;;;;;;;10.73;9.70;;;;;;;;;;5076536;28;20028;-73
2022/06/01 07:32:44;;;;;;;15.93;9.93;;;;;;;;;;5043850;28;20046;-73
2022/06/01 07:35:10;;;;;;;15.85;9.45;;;;;;;;;;5071894;28;20032;-73
2022/06/01 07:43:07;;;;;;;12.98;9.43;;;;;;;;;;5070647;28;20048;-72
2022/06/01 07:45:34;;;;;;;11.95;9.70;;;;;;;;;;5064365;28;20037;-72
2022/06/01 07:48:01;;;;;;;11.45;8.95;;;;;;;;;;5063038;28;20167;-73
2022/06/01 07:50:27;;;;;;;10.93;9.48;;;;;;;;;;5058734;28;20471;-72
2022/06/01 07:52:53;;;;;;;9.80;7.95;;;;;;;;;;5072775;28;20119;-72
2022/06/01 07:55:19;;;;;;;9.80;7.70;;;;;;;;;;5056340;28;20121;-72
2022/06/01 07:57:45;;;;;;;10.90;8.32;;;;;;;;;;5053347;28;20036;-72
2022/06/01 08:00:11;;;;;;;8.48;7.63;;;;;;;;;;5081843;28;20034;-72
2022/06/01 08:02:38;;;;;;;10.98;7.20;;;;;;;;;;5056247;28;20040;-73
2022/06/01 08:05:05;;;;;;;23.23;17.70;;;17.60;99.90;;;;;;5054607;28;20436;-74
2022/06/01 08:07:33;;;;;;;6.95;5.55;;;;;;;;;;5038119;28;20118;-74
2022/06/01 08:10:00;;;;;;;5.90;5.00;;;;;;;;;;5073819;28;20109;-74
2022/06/01 08:15:11;;;;;;;4.70;4.30;;;;;;;;;;5063920;28;20118;-74
2022/06/01 08:17:38;;;;;;;4.22;3.63;;;;;;;;;;5062718;28;20143;-74
2022/06/01 08:20:04;;;;;;;3.58;3.28;;;;;;;;;;5051028;28;20113;-75
2022/06/01 08:22:30;;;;;;;5.60;3.92;;;;;;;;;;5067480;28;20043;-75
2022/06/01 08:24:56;;;;;;;3.72;3.22;;;;;;;;;;5069069;28;20033;-75
2022/06/01 08:27:22;;;;;;;5.25;4.75;;;;;;;;;;5064621;28;20043;-75
2022/06/01 08:29:48;;;;;;;7.80;4.68;;;;;;;;;;5066805;28;20111;-74
2022/06/01 08:32:14;;;;;;;4.90;4.40;;;;;;;;;;5052922;28;20028;-74
2022/06/01 08:34:41;;;;;;;4.97;4.20;;;;;;;;;;5071110;28;20039;-74
2022/06/01 08:37:07;;;;;;;4.05;3.67;;;;;;;;;;5069434;28;20071;-74
2022/06/01 08:39:33;;;;;;;5.25;4.03;;;;;;;;;;5071790;28;20041;-74
2022/06/01 08:42:01;;;;;;;5.43;3.63;;;;;;;;;;5069957;28;20167;-74
2022/06/01 08:44:27;;;;;;;4.68;3.88;;;;;;;;;;5070024;28;20436;-74
2022/06/01 08:46:56;;;;;;;5.80;3.78;;;;;;;;;;5064852;28;20091;-74
2022/06/01 08:49:27;;;;;;;3.92;2.42;;;;;;;;;;5077016;28;20036;-74
2022/06/01 08:51:53;;;;;;;2.40;1.90;;;;;;;;;;5067461;28;20044;-74
2022/06/01 08:54:20;;;;;;;6.07;4.90;;;;;;;;;;5061388;28;20040;-72
2022/06/01 08:56:48;;;;;;;4.00;2.45;;;;;;;;;;5049041;28;20047;-74
2022/06/01 08:59:23;;;;;;;6.43;4.78;;;;;;;;;;5061548;28;20077;-74
2022/06/01 09:02:09;;;;;;;2.08;1.83;;;;;;;;;;5056610;28;20060;-75
2022/06/01 09:04:44;;;;;;;3.00;2.05;;;;;;;;;;5073758;28;20024;-72
2022/06/01 09:07:10;;;;;;;2.63;2.00;;;;;;;;;;5064578;28;20396;-72
2022/06/01 09:09:36;;;;;;;3.70;1.80;;;;;;;;;;5058187;28;20021;-72
2022/06/01 09:12:03;;;;;;;2.30;1.70;;;;;;;;;;5083676;28;20039;-72
2022/06/01 09:14:31;;;;;;;2.03;1.80;;;;;;;;;;5059718;28;20069;-72
2022/06/01 09:16:59;;;;;;;2.67;1.63;;;;;;;;;;5050886;28;20068;-72
2022/06/01 09:22:37;;;;;;;1.98;1.60;;;;;;;;;;5077749;28;20135;-78
2022/06/01 09:22:37;;;;;;;6.88;4.72;;;;;;;;;;5092208;28;20071;-80
2022/06/01 09:25:09;;;;;;;2.17;1.98;;;;;;;;;;5076953;28;20052;-80
2022/06/01 09:27:38;;;;;;;2.22;1.33;;;;;;;;;;5050952;28;20052;-73
2022/06/01 09:30:24;;;;;;;1.60;1.50;;;;;;;;;;5051052;28;20388;-72
2022/06/01 09:32:59;;;;;;;1.85;1.50;;;;;;;;;;5065394;28;20476;-72
2022/06/01 09:35:28;;;;;;;1.92;1.58;;;;;;;;;;5070644;28;20040;-72
2022/06/01 09:37:54;;;;;;;2.15;1.63;;;;;;;;;;5070266;28;20028;-72
2022/06/01 09:40:20;;;;;;;2.30;1.58;;;;;;;;;;5063496;28;20041;-72
2022/06/01 09:42:51;;;;;;;4.05;1.50;;;;;;;;;;5070937;28;20036;-72
2022/06/01 09:45:25;;;;;;;1.77;1.52;;;;;;;;;;5074546;28;20029;-72
2022/06/01 09:47:51;;;;;;;1.45;1.20;;;;;;;;;;5071644;28;20036;-72
2022/06/01 09:50:20;;;;;;;1.80;1.23;;;;;;;;;;5062253;28;20071;-73
2022/06/01 09:52:46;;;;;;;3.00;1.10;;;;;;;;;;5070086;28;20068;-73
2022/06/01 09:55:12;;;;;;;1.88;1.27;;;;;;;;;;5064936;28;20059;-73
2022/06/01 09:57:38;;;;;;;2.45;1.60;;;;;;;;;;5066846;28;20456;-73
2022/06/01 10:08:30;;;;;;;2.70;2.50;;;;;;;;;;5067026;28;20083;-72
2022/06/01 10:11:00;;;;;;;3.25;2.25;;;;;;;;;;5076011;28;20028;-72
2022/06/01 10:13:32;;;;;;;5.32;3.13;;;;;;;;;;5049238;28;20107;-72
2022/06/01 10:16:19;;;;;;;3.55;3.15;;;;;;;;;;5054897;28;20029;-72
2022/06/01 10:18:45;;;;;;;11.18;6.30;;;;;;;;;;5023447;28;20446;-72
2022/06/01 10:21:14;;;;;;;6.55;4.35;;;;;;;;;;5063245;28;20158;-72
2022/06/01 10:23:52;;;;;;;4.63;3.03;;;;;;;;;;5078168;28;20133;-72
2022/06/01 10:26:24;;;;;;;3.58;3.08;;;;;;;;;;5084859;28;20044;-72
2022/06/01 10:29:02;;;;;;;3.07;2.40;;;;;;;;;;5074076;28;20128;-72
2022/06/01 10:31:31;;;;;;;3.15;2.85;;;;;;;;;;5050422;28;20040;-71
2022/06/01 10:34:09;;;;;;;3.70;2.88;;;;;;;;;;5058729;28;20032;-71
2022/06/01 10:36:44;;;;;;;1.67;1.40;;;;;;;;;;5060384;28;20105;-72
2022/06/01 10:39:10;;;;;;;1.88;0.80;;;;;;;;;;5046159;28;20120;-71
2022/06/01 10:41:40;;;;;;;1.25;0.60;;;;;;;;;;5055222;28;20071;-72
2022/06/01 10:44:35;;;;;;;5.18;0.70;;;;;;;;;;5051001;28;20033;-73
2022/06/01 10:47:01;;;;;;;3.10;1.00;;;;;;;;;;5032702;28;20068;-73
2022/06/01 10:49:33;;;;;;;1.25;1.10;;;;;;;;;;5071228;28;20028;-73
2022/06/01 10:52:08;;;;;;;1.38;0.75;;;;;;;;;;5066900;28;20517;-72
2022/06/01 10:54:40;;;;;;;1.23;0.85;;;;;;;;;;5062450;28;20086;-73
2022/06/01 10:57:09;;;;;;;1.13;0.80;;;;;;;;;;5056012;28;20392;-72
2022/06/01 10:59:35;;;;;;;1.08;0.65;;;;;;;;;;5058623;28;20063;-72
2022/06/01 11:02:21;;;;;;;32.47;23.77;;;;;;;;;;5054222;28;20209;-73
2022/06/01 11:04:59;;;;;;;1.27;1.05;;;;;;;;;;5055658;28;20090;-73
2022/06/01 11:07:28;;;;;;;2.30;0.80;;;;;;;;;;5054780;28;20052;-73
2022/06/01 11:09:56;;;;;;;1.33;0.90;;;;;;;;;;5064083;28;20085;-74
2022/06/01 11:12:32;;;;;;;1.67;1.00;;;;;;;;;;5057424;28;20056;-74
2022/06/01 11:15:14;;;;;;;1.75;0.80;;;;;;;;;;5049910;28;20060;-74
2022/06/01 11:17:45;;;;;;;1.85;1.08;;;;;;;;;;5076012;28;20024;-74
2022/06/01 11:20:27;;;;;;;1.27;1.17;;;;;;;;;;5085267;28;20054;-74
2022/06/01 11:22:56;;;;;;;1.52;1.42;;;;;;;;;;5069764;28;20045;-73
2022/06/01 11:25:27;;;;;;;3.22;1.80;;;;;;;;;;5073654;28;20054;-70
2022/06/01 11:28:15;;;;;;;4.75;3.10;;;;;;;;;;5057373;28;20024;-69
2022/06/01 11:30:52;;;;;;;1.63;1.50;;;;;;;;;;5059567;28;20028;-72
2022/06/01 11:33:28;;;;;;;2.08;1.52;;;;;;;;;;5054320;28;20025;-71
2022/06/01 11:36:09;;;;;;;1.70;1.10;;;;;;;;;;5062017;28;20044;-72
2022/06/01 11:38:38;;;;;;;3.75;0.65;;;;;;;;;;5057071;28;20031;-72
2022/06/01 11:41:09;;;;;;;2.70;0.80;;;;;;;;;;5070374;28;20024;-74
2022/06/01 11:43:41;;;;;;;1.65;0.50;;;;;;;;;;5071553;28;20060;-72
2022/06/01 11:46:22;;;;;;;5.65;1.45;;;;;;;;;;5047926;28;20450;-73
2022/06/01 11:48:53;;;;;;;1.73;0.60;;;;;;;;;;5064134;28;20024;-73
2022/06/01 11:51:21;;;;;;;1.13;0.38;;;;;;;;;;5068135;28;20082;-73
2022/06/01 11:54:06;;;;;;;0.30;0.30;;;;;;;;;;5041200;28;20051;-73
2022/06/01 11:56:42;;;;;;;2.20;0.50;;;;;;;;;;5060587;28;20028;-73
2022/06/01 11:59:18;;;;;;;3.15;0.38;;;;;;;;;;5072343;28;20320;-73
2022/06/01 12:01:44;;;;;;;2.53;1.00;;;;;;;;;;5067984;28;20028;-73
2022/06/01 12:04:11;;;;;;;1.63;0.70;;;;;;;;;;5061341;28;20086;-73
2022/06/01 12:06:43;;;;;;;1.33;0.73;;;;;;;;;;5058274;28;20037;-73
2022/06/01 12:09:09;;;;;;;;;;;;;;;;;;5051364;28;20114;-73
2022/06/01 12:11:41;;;;;;;5.50;1.33;;;;;;;;;;5064932;28;19909;-73
2022/06/01 12:14:07;;;;;;;;;;;;;;;;;;5068037;28;20111;-73
2022/06/01 12:16:35;;;;;;;6.30;1.17;;;;;;;;;;5068691;28;20317;-73
2022/06/01 12:19:09;;;;;;;1.80;0.50;;;;;;;;;;5051094;28;20037;-73
2022/06/01 12:21:47;;;;;;;2.35;0.63;;;;;;;;;;5052501;28;20025;-73
2022/06/01 12:29:53;;;;;;;0.90;0.40;;;;;;;;;;5071036;28;20067;-73
2022/06/01 12:32:19;;;;;;;0.52;0.50;;;;;;;;;;5068048;28;20444;-73
2022/06/01 12:34:50;;;;;;;2.25;0.55;;;;;;;;;;5037737;28;20242;-73
2022/06/01 12:37:31;;;;;;;0.95;0.40;;;;;;;;;;5065044;28;20032;-72
2022/06/01 12:40:02;;;;;;;1.48;0.45;;;;;;;;;;5065742;28;20392;-72
2022/06/01 12:42:34;;;;;;;0.60;0.50;;;;;;;;;;5069104;28;20036;-72
2022/06/01 12:45:05;;;;;;;0.90;0.47;;;;;;;;;;5049519;28;20059;-72
2022/06/01 12:47:31;;;;;;;0.82;0.40;;;;;;;;;;5067878;28;20109;-72
2022/06/01 12:50:05;;;;;;;0.40;0.40;;;;;;;;;;5049702;28;20085;-73
2022/06/01 12:52:31;;;;;;;1.60;0.70;;;;;;;;;;5069208;28;20113;-72
2022/06/01 12:55:00;;;;;;;2.60;0.82;;;;;;;;;;5065254;28;20413;-72
2022/06/01 12:57:26;;;;;;;1.27;0.47;;;;;;;;;;5064716;28;20081;-73
2022/06/01 12:59:56;;;;;;;1.65;0.70;;;;;;;;;;5058495;28;20032;-72
2022/06/01 13:02:22;;;;;;;4.28;0.60;;;;;;;;;;5061874;28;20048;-73
2022/06/01 13:04:59;;;;;;;1.88;1.08;;;;;;;;;;5038761;28;20029;-74
2022/06/01 13:07:33;;;;;;;1.42;0.75;;;;;;;;;;5062982;28;20033;-73
2022/06/01 13:10:01;;;;;;;1.85;0.60;;;;;;;;;;5045856;28;20115;-74
2022/06/01 13:12:29;;;;;;;1.25;0.45;;;;;;;;;;5069647;28;20024;-74
2022/06/01 13:15:06;;;;;;;1.27;0.65;;;;;;;;;;5070479;28;20035;-73
2022/06/01 13:17:32;;;;;;;2.13;0.60;;;;;;;;;;5070044;28;20139;-73
2022/06/01 13:20:00;;;;;;;2.10;0.60;;;;;;;;;;5069433;28;20485;-73
2022/06/01 13:22:35;;;;;;;1.10;0.50;;;;;;;;;;5078420;28;20044;-74
2022/06/01 13:25:05;;;;;;;3.72;0.63;;;;;;;;;;5055757;28;20037;-73
2022/06/01 13:27:34;;;;;;;0.52;0.52;;;;;;;;;;5066912;28;20028;-73
2022/06/01 13:30:00;;;;;;;0.50;0.50;;;;;;;;;;5068365;28;20082;-73
2022/06/01 13:32:42;;;;;;;1.15;0.63;;;;;;;;;;5057592;28;20476;-73
2022/06/01 13:35:20;;;;;;;0.93;0.70;;;;;;;;;;5069505;28;20115;-73
2022/06/01 13:37:46;;;;;;;0.70;0.70;;;;;;;;;;5063304;28;20025;-73
2022/06/01 13:40:22;;;;;;;8.20;5.07;;;;;;;;;;5066069;28;20032;-74
2022/06/01 13:42:51;;;;;;;96.72;71.40;;;17.90;99.90;;;;;;5073403;28;20036;-74
2022/06/01 13:45:19;;;;;;;4.65;3.05;;;;;;;;;;5043097;28;20041;-77
2022/06/01 13:47:51;;;;;;;1.27;1.08;;;;;;;;;;5060722;28;20042;-74
2022/06/01 13:50:17;;;;;;;;;;;;;;;;;;5070608;28;20224;-74
2022/06/01 13:52:45;;;;;;;1.85;1.10;;;;;;;;;;5077247;28;19959;-74
2022/06/01 13:55:14;;;;;;;0.82;0.70;;;;;;;;;;5065742;28;20399;-74
2022/06/01 13:57:50;;;;;;;1.80;0.88;;;;;;;;;;5066172;28;20032;-74
2022/06/01 14:00:19;;;;;;;1.00;0.82;;;;;;;;;;5072106;28;20025;-74
2022/06/01 14:02:46;;;;;;;1.45;1.05;;;;;;;;;;5069445;28;20137;-74
2022/06/01 14:05:35;;;;;;;1.13;1.00;;;;;;;;;;5058532;28;20373;-74
2022/06/01 14:08:25;;;;;;;1.95;1.45;;;;;;;;;;5074208;28;20127;-74
2022/06/01 14:10:52;;;;;;;2.70;1.38;;;;;;;;;;5057268;28;20036;-75
2022/06/01 14:13:20;;;;;;;4.13;1.02;;;;;;;;;;5062591;28;20035;-74
2022/06/01 14:15:46;;;;;;;1.58;0.70;;;;;;;;;;5069111;28;20036;-74
2022/06/01 14:18:15;;;;;;;1.42;0.90;;;;;;;;;;5050321;28;20074;-73
2022/06/01 14:20:41;;;;;;;2.33;0.70;;;;;;;;;;5055353;28;20056;-74
2022/06/01 14:23:07;;;;;;;2.50;1.10;;;;;;;;;;5072203;28;20033;-73
2022/06/01 14:28:30;;;;;;;10.63;1.85;;;;;;;;;;5072206;28;20458;-73
2022/06/01 14:30:57;;;;;;;9.88;2.17;;;;;;;;;;5081355;28;20108;-73
2022/06/01 14:33:23;;;;;;;10.38;2.00;;;;;;;;;;5066162;28;20515;-73
2022/06/01 14:35:51;;;;;;;3.67;2.28;;;;;;;;;;5073120;28;20064;-73
2022/06/01 14:38:18;;;;;;;4.28;1.73;;;;;;;;;;5071515;28;20029;-74
2022/06/01 14:40:44;;;;;;;6.57;1.40;;;;;;;;;;5054931;28;20078;-72
2022/06/01 14:43:10;;;;;;;5.00;1.60;;;;;;;;;;5042853;28;20417;-74
2022/06/01 14:45:36;;;;;;;7.13;1.63;;;;;;;;;;5059386;28;20066;-73
2022/06/01 14:48:03;;;;;;;8.35;1.63;;;;;;;;;;5057272;28;20067;-73
2022/06/01 14:50:29;;;;;;;3.17;1.45;;;;;;;;;;5057502;28;20693;-73
2022/06/01 14:52:55;;;;;;;2.95;1.45;;;;;;;;;;5062062;28;20025;-74
2022/06/01 14:55:21;;;;;;;6.95;2.13;;;;;;;;;;5060194;28;20443;-73
2022/06/01 14:57:48;;;;;;;2.70;1.90;;;;;;;;;;5045960;28;20116;-74
2022/06/01 15:00:14;;;;;;;8.65;3.22;;;;;;;;;;5059410;28;20033;-74
2022/06/01 15:02:43;;;;;;;6.25;2.25;;;;;;;;;;5069408;28;20093;-74
2022/06/01 15:05:10;;;;;;;6.97;2.20;;;;;;;;;;5070839;28;20460;-74
2022/06/01 15:07:36;;;;;;;6.45;2.67;;;;;;;;;;5063447;28;20368;-74
2022/06/01 15:10:02;;;;;;;5.15;1.95;;;;;;;;;;5066378;28;20029;-74
2022/06/01 15:12:28;;;;;;;9.90;7.03;;;;;;;;;;5070577;28;20035;-72
2022/06/01 15:14:54;;;;;;;4.25;2.17;;;;;;;;;;5064085;28;20020;-72
2022/06/01 15:17:22;;;;;;;8.45;2.00;;;;;;;;;;5046616;28;20029;-74
2022/06/01 15:19:49;;;;;;;2.38;1.80;;;;;;;;;;5033575;28;20318;-75